Share

Fort Leonard Wood, MO (65473)

Waynesville Regional At Forney Field (KTBN) Elev 1158 ft | 37.74 °N, 92.14 °W | Change Station

Current weather conditions updated 58 minutes ago

Scattered Clouds
Scattered Clouds
47 °F
Feels Like 47 °F
N
4
Wind Variable Wind from NNW
Sunrise 6:29 AM
Sunset 7:47 PM
Moon Waning Gibbous

Today is forecast to be Warmer than yesterday.

Pressure 30.28 in
Visibility 10.0 miles
Clouds Scattered Clouds 9000 ft
Dew Point 40 °F
Humidity 78%
Rainfall 0.00 in
Snow Depth Not available.
UV 0 out of 16
Pollen 8.80 out of 12
Air Quality Not available.
Flu Activity Sporadic
METAR KTBN 180558Z AUTO 34003KT 10SM SCT090 08/05 A3027 RMK AO2 SLP252 T00840047 10150 20084 401870046 50005

More Conditions Fewer Conditions

Pressure 30.28 in
Visibility 10.0 miles
Clouds Scattered Clouds 9000 ft
Dew Point 40 °F
Humidity 78%
Rainfall 0.00 in
Snow Depth Not available.
UV 0 out of 16
Pollen 8.80 out of 12
Air Quality Not available.
Flu Activity Sporadic
METAR KTBN 180558Z AUTO 34003KT 10SM SCT090 08/05 A3027 RMK AO2 SLP252 T00840047 10150 20084 401870046 50005

More Conditions Fewer Conditions

10-Day Forecast

Almanac

Astronomy

Apr. 18, 2014 Rise Set
Actual Time 6:29 AM CDT 7:47 PM CDT
Civil Twilight 6:02 AM CDT 8:14 PM CDT
Nautical Twilight 5:29 AM CDT 8:47 PM CDT
Astronomical Twilight 4:55 AM CDT 9:21 PM CDT
Moon 11:30 PM CDT 8:54 AM CDT
Length of Visible Light 14h 12m
Length of Day
13h 17m
Tomorrow will be 2m 18s longer.
Waning Gibbous, 90% of the Moon is Illuminated
Today
Waning Gibbous
Apr 22
Last Quarter
Apr 29
New
May 6
First Quarter
May 14
Full

Today's Extremes

State Highs State Lows

Community

  • SUNRISE THROUGH THE TREES.
    SUNRISE THROUGH THE TREES.
  • Dog Wood Blossoms
    Dog Wood Blossoms
  • Morning Light
    Morning Light
  • New Day
    New Day
  • Lake Michigan Sunrise
    Lake Michigan Sunrise

WunderPhotos

Upload Photos

1,702,278 photos uploaded!

WunderBlogs® & News

Nearby

Snow Depth

Station Depth Elevation
No new snow has been reported.

Coastal Water Temperatures

Place Temperature
No Stations Reporting

Earthquake Activity

City Distance Mag. Time & Date
No recent earthquake activity has been reported nearby.
Minimum magnitude displayed is 2.5.

Nearby Weather Stations

Station Location Temp. Windchill Dew Point Humidity Wind Precip. Elev Updated Type
Downtown, Dixon, MO 45.7 °F 43 °F 38 °F 74% NNE  at  5.5 mph 0.00 in / hr 1184 ft 1:56 AM CDT Rapid Fire
Evening Shade, NW Texas Cnty, MO, Plato, MO 43.5 °F 44 °F 28 °F 53% NNE  at  1.1 mph 0.00 in / hr 1339 ft 1:56 AM CDT Rapid Fire
RAWS ROBY MO, Roby, MO 46 °F 46 °F 39 °F 75% North  at  0 mph 0.00 in / hr 1284 ft 1:07 AM CDT MADIS
Rural Lebanon, Lebanon, MO 44.6 °F 45 °F 39 °F 80% WNW  at  0.0 mph 0.00 in / hr 1198 ft 1:56 AM CDT Rapid Fire

Show More Stations Show Fewer Stations

What do you think?

We're not finished. Please let us know what you like, what you don't like, and what you are still missing.